createdAt,value
2023-05-22T00:02:04.889Z,12.10
2023-05-22T00:07:12.015Z,11.90
2023-05-22T00:12:21.256Z,11.50
2023-05-22T00:17:30.317Z,11.50
2023-05-22T00:22:37.396Z,11.60
2023-05-22T00:27:44.407Z,11.40
2023-05-22T00:32:51.725Z,11.50
2023-05-22T00:37:58.801Z,11.60
2023-05-22T00:43:07.387Z,11.50
2023-05-22T00:48:15.742Z,11.30
2023-05-22T00:53:25.099Z,11.10
2023-05-22T00:58:32.971Z,11.30
2023-05-22T01:03:46.114Z,11.30
2023-05-22T01:08:53.563Z,11.30
2023-05-22T01:14:28.728Z,11.20
2023-05-22T01:19:59.077Z,11.40
2023-05-22T01:25:28.287Z,11.30
2023-05-22T01:30:57.568Z,11.50
2023-05-22T01:36:06.549Z,11.30
2023-05-22T01:41:14.541Z,11.20
2023-05-22T01:46:21.394Z,11.30
2023-05-22T01:51:57.346Z,11.50
2023-05-22T01:57:09.424Z,11.10
2023-05-22T02:02:20.142Z,11.20
2023-05-22T02:07:28.291Z,11.00
2023-05-22T02:12:36.674Z,10.90
2023-05-22T02:17:45.778Z,10.90
2023-05-22T02:22:53.028Z,11.00
2023-05-22T02:28:01.087Z,11.00
2023-05-22T02:33:09.581Z,10.80
2023-05-22T02:38:18.108Z,11.10
2023-05-22T02:43:25.337Z,11.00
2023-05-22T02:48:32.407Z,10.70
2023-05-22T02:53:39.947Z,10.60
2023-05-22T02:58:46.861Z,10.60
2023-05-22T03:03:55.679Z,10.50
2023-05-22T03:09:04.125Z,10.60
2023-05-22T03:14:11.332Z,10.50
2023-05-22T03:19:20.954Z,10.50
2023-05-22T03:24:28.739Z,10.60
2023-05-22T03:29:36.549Z,10.80
2023-05-22T03:34:44.150Z,10.60
2023-05-22T03:39:51.730Z,10.80
2023-05-22T03:45:00.694Z,10.90
2023-05-22T03:50:08.506Z,11.00
2023-05-22T03:55:15.294Z,11.10
2023-05-22T04:00:23.879Z,11.20
2023-05-22T04:05:35.067Z,11.10
2023-05-22T04:10:42.894Z,11.30
2023-05-22T04:15:50.532Z,11.70
2023-05-22T04:20:57.778Z,11.80
2023-05-22T04:26:04.689Z,11.90
2023-05-22T04:31:13.416Z,12.00
2023-05-22T04:36:22.606Z,11.90
2023-05-22T04:41:32.844Z,12.20
2023-05-22T04:46:40.819Z,12.50
2023-05-22T04:51:49.180Z,12.90
2023-05-22T04:56:56.877Z,13.10
2023-05-22T05:02:05.396Z,13.50
2023-05-22T05:07:13.705Z,13.70
2023-05-22T05:12:21.747Z,13.80
2023-05-22T05:17:29.038Z,14.00
2023-05-22T05:22:37.537Z,14.10
2023-05-22T05:27:44.572Z,14.50
2023-05-22T05:32:52.195Z,14.70
2023-05-22T05:38:00.023Z,15.00
2023-05-22T05:43:09.298Z,15.40
2023-05-22T05:48:18.190Z,15.80
2023-05-22T05:53:25.253Z,15.90
2023-05-22T05:58:32.881Z,16.20
2023-05-22T06:03:41.009Z,16.30
2023-05-22T06:08:48.347Z,16.80
2023-05-22T06:13:57.333Z,17.20
2023-05-22T06:19:05.305Z,17.60
2023-05-22T06:24:13.174Z,17.90
2023-05-22T06:29:21.977Z,18.20
2023-05-22T06:34:30.086Z,18.80
2023-05-22T06:39:36.788Z,19.00
2023-05-22T06:44:42.463Z,19.30
2023-05-22T06:49:49.664Z,19.60
2023-05-22T06:54:58.612Z,19.80
2023-05-22T07:00:11.784Z,20.10
2023-05-22T07:05:20.391Z,20.40
2023-05-22T07:10:27.990Z,20.60
2023-05-22T07:15:35.770Z,20.50
2023-05-22T07:20:43.153Z,21.10
2023-05-22T07:25:54.031Z,21.50
2023-05-22T07:31:01.537Z,21.20
2023-05-22T07:36:09.393Z,21.10
2023-05-22T07:41:16.776Z,21.10
2023-05-22T07:46:23.405Z,21.40
2023-05-22T07:51:31.531Z,21.50
2023-05-22T07:56:41.378Z,21.40
2023-05-22T08:01:49.739Z,21.80
2023-05-22T08:06:57.439Z,21.80
2023-05-22T08:12:07.561Z,22.00
2023-05-22T08:17:14.720Z,22.00
2023-05-22T08:22:21.397Z,22.30
2023-05-22T08:27:28.430Z,22.40
2023-05-22T08:32:35.376Z,22.20
2023-05-22T08:37:42.440Z,22.40
2023-05-22T08:42:51.147Z,22.60
2023-05-22T08:47:59.683Z,22.90
2023-05-22T08:53:09.564Z,22.80
2023-05-22T08:58:17.557Z,23.10
2023-05-22T09:03:25.096Z,23.00
2023-05-22T09:08:33.442Z,22.90
2023-05-22T09:13:42.613Z,23.40
2023-05-22T09:18:50.785Z,23.60
2023-05-22T09:24:02.610Z,23.50
2023-05-22T09:29:10.895Z,23.50
2023-05-22T09:34:18.518Z,23.20
2023-05-22T09:39:25.603Z,23.50
2023-05-22T09:44:33.869Z,22.90
2023-05-22T09:49:47.255Z,23.30
2023-05-22T09:54:57.398Z,23.70
2023-05-22T10:00:08.257Z,23.00
2023-05-22T10:05:18.743Z,22.10
2023-05-22T10:10:28.443Z,21.90
2023-05-22T10:15:36.797Z,21.60
2023-05-22T10:20:45.032Z,22.00
2023-05-22T10:25:53.879Z,22.10
2023-05-22T10:31:17.669Z,21.80
2023-05-22T10:36:29.672Z,22.50
2023-05-22T10:41:37.306Z,23.00
2023-05-22T10:46:51.832Z,22.50
2023-05-22T10:52:06.033Z,22.20
2023-05-22T10:57:18.516Z,22.50
2023-05-22T11:02:32.004Z,22.30
2023-05-22T11:07:42.311Z,22.70
2023-05-22T11:12:50.217Z,23.30
2023-05-22T11:18:01.038Z,23.10
2023-05-22T11:23:09.870Z,23.30
2023-05-22T11:28:17.282Z,22.80
2023-05-22T11:33:25.805Z,23.10
2023-05-22T11:38:33.767Z,23.50
2023-05-22T11:43:42.495Z,23.70
2023-05-22T11:48:50.034Z,22.90
2023-05-22T11:53:58.249Z,22.90
2023-05-22T11:59:06.265Z,23.10
2023-05-22T12:04:14.184Z,23.50
2023-05-22T12:09:21.658Z,23.90
2023-05-22T12:14:31.363Z,23.50
2023-05-22T12:19:42.141Z,23.50
2023-05-22T12:24:52.161Z,23.40
2023-05-22T12:30:00.356Z,23.20
2023-05-22T12:35:11.087Z,23.50
2023-05-22T12:40:19.723Z,22.70
2023-05-22T12:45:26.300Z,22.30
2023-05-22T12:50:34.996Z,22.20
2023-05-22T12:55:42.962Z,22.60
2023-05-22T13:00:50.919Z,22.30
2023-05-22T13:05:58.288Z,22.20
2023-05-22T13:11:06.140Z,22.50
2023-05-22T13:16:13.601Z,23.00
2023-05-22T13:21:24.108Z,22.70
2023-05-22T13:26:32.217Z,22.90
2023-05-22T13:31:39.456Z,23.10
2023-05-22T13:36:47.243Z,23.20
2023-05-22T13:41:56.634Z,23.00
2023-05-22T13:47:05.217Z,23.10
2023-05-22T13:52:12.920Z,22.90
2023-05-22T13:57:21.519Z,23.00
2023-05-22T14:02:28.563Z,23.60
2023-05-22T14:07:35.708Z,23.30
2023-05-22T14:12:43.654Z,23.00
2023-05-22T14:17:50.602Z,23.10
2023-05-22T14:22:58.396Z,23.20
2023-05-22T14:28:05.927Z,22.90
2023-05-22T14:33:12.922Z,22.60
2023-05-22T14:38:21.830Z,22.00
2023-05-22T14:43:28.512Z,22.10
2023-05-22T14:48:36.205Z,21.70
2023-05-22T14:53:43.311Z,21.90
2023-05-22T14:58:52.422Z,22.10
2023-05-22T15:03:59.528Z,22.30
2023-05-22T15:09:06.708Z,22.40
2023-05-22T15:14:14.133Z,22.60
2023-05-22T15:19:21.714Z,22.40
2023-05-22T15:24:30.788Z,22.10
2023-05-22T15:29:37.836Z,22.00
2023-05-22T15:34:44.890Z,22.50
2023-05-22T15:39:52.862Z,22.40
2023-05-22T15:45:02.040Z,22.50
2023-05-22T15:50:09.694Z,22.60
2023-05-22T15:55:19.181Z,22.60
2023-05-22T16:00:28.156Z,22.00
2023-05-22T16:05:35.826Z,22.00
2023-05-22T16:10:45.995Z,21.70
2023-05-22T16:15:53.304Z,21.50
2023-05-22T16:21:01.579Z,21.60
2023-05-22T16:26:09.005Z,21.60
2023-05-22T16:31:19.505Z,21.30
2023-05-22T16:36:27.319Z,21.50
2023-05-22T16:41:35.336Z,21.40
2023-05-22T16:46:42.717Z,21.30
2023-05-22T16:51:49.865Z,21.10
2023-05-22T16:56:57.038Z,21.10
2023-05-22T17:02:04.080Z,21.20
2023-05-22T17:07:12.746Z,20.90
2023-05-22T17:12:19.651Z,20.90
2023-05-22T17:17:27.327Z,20.70
2023-05-22T17:22:36.477Z,20.50
2023-05-22T17:27:44.256Z,20.50
2023-05-22T17:32:53.634Z,20.20
2023-05-22T17:38:09.417Z,19.70
2023-05-22T17:43:18.581Z,19.80
2023-05-22T17:48:27.554Z,19.80
2023-05-22T17:53:37.182Z,19.60
2023-05-22T17:58:43.869Z,19.50
2023-05-22T18:03:51.195Z,19.30
2023-05-22T18:08:58.567Z,19.30
2023-05-22T18:14:06.272Z,19.20
2023-05-22T18:19:13.612Z,19.20
2023-05-22T18:24:26.249Z,18.80
2023-05-22T18:29:33.921Z,18.80
2023-05-22T18:34:42.568Z,18.70
2023-05-22T18:39:50.757Z,18.50
2023-05-22T18:44:59.201Z,18.40
2023-05-22T18:50:08.249Z,18.20
2023-05-22T18:55:16.006Z,18.20
2023-05-22T19:00:24.180Z,18.00
2023-05-22T19:05:33.180Z,18.00
2023-05-22T19:10:40.051Z,17.90
2023-05-22T19:15:48.308Z,17.80
2023-05-22T19:20:58.349Z,17.70
2023-05-22T19:26:06.424Z,17.40
2023-05-22T19:31:13.534Z,17.00
2023-05-22T19:36:22.364Z,16.80
2023-05-22T19:41:30.852Z,16.60
2023-05-22T19:46:39.637Z,16.60
2023-05-22T19:51:47.181Z,16.60
2023-05-22T19:56:54.797Z,16.80
2023-05-22T20:02:02.819Z,17.10
2023-05-22T20:07:14.254Z,17.00
2023-05-22T20:12:23.109Z,16.70
2023-05-22T20:17:32.650Z,16.50
2023-05-22T20:22:40.488Z,16.40
2023-05-22T20:27:47.612Z,16.30
2023-05-22T20:32:55.862Z,16.30
2023-05-22T20:38:03.463Z,16.40
2023-05-22T20:43:12.959Z,16.80
2023-05-22T20:48:21.817Z,16.90
2023-05-22T20:53:29.414Z,16.70
2023-05-22T20:58:39.046Z,16.80
2023-05-22T21:03:48.225Z,16.60
2023-05-22T21:08:57.724Z,16.40
2023-05-22T21:14:05.129Z,16.20
2023-05-22T21:19:12.816Z,16.10
2023-05-22T21:24:20.361Z,16.10
2023-05-22T21:29:27.626Z,16.10
2023-05-22T21:34:34.692Z,16.00
2023-05-22T21:39:41.820Z,16.00
2023-05-22T21:44:49.582Z,16.00
2023-05-22T21:49:56.837Z,16.10
2023-05-22T21:55:02.685Z,16.10
2023-05-22T22:00:10.591Z,16.10
2023-05-22T22:05:19.037Z,16.00
2023-05-22T22:10:28.252Z,15.50
2023-05-22T22:15:36.857Z,15.20
2023-05-22T22:20:47.135Z,15.00
2023-05-22T22:25:54.156Z,14.80
2023-05-22T22:31:01.669Z,14.70
2023-05-22T22:36:09.618Z,14.60
2023-05-22T22:41:17.844Z,14.60
2023-05-22T22:46:24.890Z,14.50
2023-05-22T22:51:32.869Z,15.00
2023-05-22T22:56:40.892Z,15.30
2023-05-22T23:01:48.482Z,15.40
2023-05-22T23:06:57.315Z,15.20
2023-05-22T23:12:04.019Z,14.70
2023-05-22T23:17:11.080Z,14.60
2023-05-22T23:22:19.699Z,14.20
2023-05-22T23:27:27.083Z,13.90
2023-05-22T23:32:34.871Z,13.70
2023-05-22T23:37:42.366Z,13.90
2023-05-22T23:42:49.701Z,14.00
2023-05-22T23:47:57.167Z,14.00
2023-05-22T23:53:04.855Z,13.70
2023-05-22T23:58:11.636Z,13.60
